INDIA METEOROLOGICAL DEPARTMENT, R.M.C. NEW DELHI
Dated:1 - 9 - 2014
METARS


Ahmedabad  
VAAH 012040Z VRB02KT 3000 TS FEW015 SCT020 FEW030CB BKN080 26/25 Q0999 NOSIG=
Amritsar   
SPECI VIAR 012045Z 00000KT 3000 RA SCT030 OVC080 24/24 Q1005=
Bangalore  
VOBL 012030Z 23010KT 6000 SCT012 BKN080 25/23 Q1010 NOSIG=
Chennai    
VOMM 012040Z 21006KT 6000 FEW020 28/24 Q1003 NOSIG=
Coimbatore 
VOCB 012000Z 23008KT 6000 FEW015 SCT080 24/22 Q1008 NOSIG=
Colombo    
VCBI 012040Z 14004KT 9999 BKN016 25/23 Q1008 NOSIG=
Delhi      
VIDP 012030Z 08007KT 3500 HZ SCT030 SCT100 28/22 Q1003 NOSIG =
Hyderabad  
VOHS 012040Z 23010KT 200V260 5000 HZ SCT015 SCT100 22/17 Q1005 NOSIG=
Kochi      
VOCI 012030Z 10003KT 4000 -RA SCT015 SCT020 OVC080 24/23 Q1008 NOSIG=
Kolkata    
VECC 012050Z 13006KT 2800 -RA SCT018 FEW025CB BKN090 26/25 Q1002 TEMPO TL2150 2000 TSRA=
Kozhikode  
VOCL 012030Z 00000KT 4000 HZ FEW004 SCT012 OVC080 24/23 Q1007 NOSIG =
Lucknow    
VILK 012030Z 07006KT 3000 HZ SCT020 FEW030CB BKN100 26/26 Q1000=
Madurai    
VOMD 012100Z 28003KT 6000 FEW020 SCT100 28/21 Q1006 =
Mumbai     
VABB 012040Z 22007G17KT 2200 -RA FEW010 SCT018 FEW025TCU OVC080 25/25 Q1000 TEMPO 1500 SHRA=
Patna      
VEPT 011950Z NIL=
Trichy     
VOTR 012040Z 28006KT 6000 FEW018 SCT100 28/21 Q1005 NOSIG=
Trivandrum 
VOTV 012040Z 00000KT 3000 HZ SCT015 BKN090 26/25 Q1007 NOSIG=
Vizag      
VOVZ 012000Z 25004KT 4500 BR SCT018 OVC090 27/25 Q1002 TEMPO 4500 -RA/DZ =
Male       
VRMM 012000Z 21013KT 9999 FEW018TCU 29/24 Q1009 NOSIG=
Gan        
VRMG 012000Z 18006KT 9999 FEW018 27/23 Q1010=
Kathmandu   
VNKT 012050Z 17004KT 9999 FEW020 20/19 Q1013 NOSIG=
Dhaka      
VGHS 011950Z 12007KT 4000 HZ SCT015 BKN100 27/24 Q1004 NOSIG=
Colombo     
VCBI 012040Z 14004KT 9999 BKN016 25/23 Q1008 NOSIG=
Karachi     
OPKC 012025Z 12006KT 6000 VCTS FEW025CB SCT030 BKN100 30/22 Q0999 TEMPO TSRA=
Lahore      
OPLA 012025Z 03006KT 4000 FU SCT040 SCT100 24/22 Q1005/A29.69=